sensor_id;sensor_type;location;lat;lon;timestamp;temperature;humidity
43561;DHT22;32305;46.410;17.394;2023-12-20T00:01:58;21.90;35.70
43561;DHT22;32305;46.410;17.394;2023-12-20T00:04:25;21.90;35.70
43561;DHT22;32305;46.410;17.394;2023-12-20T00:06:52;21.90;35.70
43561;DHT22;32305;46.410;17.394;2023-12-20T00:09:19;21.80;35.70
43561;DHT22;32305;46.410;17.394;2023-12-20T00:11:46;21.90;35.70
43561;DHT22;32305;46.410;17.394;2023-12-20T00:14:13;21.80;35.70
43561;DHT22;32305;46.410;17.394;2023-12-20T00:16:40;21.80;35.70
43561;DHT22;32305;46.410;17.394;2023-12-20T00:19:07;21.80;35.70
43561;DHT22;32305;46.410;17.394;2023-12-20T00:21:34;21.80;35.70
43561;DHT22;32305;46.410;17.394;2023-12-20T00:24:01;21.80;35.70
43561;DHT22;32305;46.410;17.394;2023-12-20T00:26:28;21.80;35.70
43561;DHT22;32305;46.410;17.394;2023-12-20T00:28:55;21.80;35.70
43561;DHT22;32305;46.410;17.394;2023-12-20T00:31:22;21.80;35.70
43561;DHT22;32305;46.410;17.394;2023-12-20T00:33:49;21.80;35.70
43561;DHT22;32305;46.410;17.394;2023-12-20T00:36:16;21.80;35.70
43561;DHT22;32305;46.410;17.394;2023-12-20T00:38:43;21.80;35.70
43561;DHT22;32305;46.410;17.394;2023-12-20T00:41:10;21.80;35.70
43561;DHT22;32305;46.410;17.394;2023-12-20T00:43:37;21.80;35.70
43561;DHT22;32305;46.410;17.394;2023-12-20T00:46:04;21.80;35.60
43561;DHT22;32305;46.410;17.394;2023-12-20T00:48:31;21.80;35.60
43561;DHT22;32305;46.410;17.394;2023-12-20T00:50:58;21.80;35.60
43561;DHT22;32305;46.410;17.394;2023-12-20T00:53:25;21.80;35.60
43561;DHT22;32305;46.410;17.394;2023-12-20T00:55:52;21.80;35.60
43561;DHT22;32305;46.410;17.394;2023-12-20T00:58:19;21.80;35.60
43561;DHT22;32305;46.410;17.394;2023-12-20T01:00:46;21.80;35.60
43561;DHT22;32305;46.410;17.394;2023-12-20T01:03:13;21.80;35.60
43561;DHT22;32305;46.410;17.394;2023-12-20T01:05:42;21.80;35.60
43561;DHT22;32305;46.410;17.394;2023-12-20T01:08:09;21.80;35.60
43561;DHT22;32305;46.410;17.394;2023-12-20T01:10:36;21.80;35.50
43561;DHT22;32305;46.410;17.394;2023-12-20T01:13:03;21.80;35.50
43561;DHT22;32305;46.410;17.394;2023-12-20T01:15:29;21.80;35.60
43561;DHT22;32305;46.410;17.394;2023-12-20T01:17:56;21.80;35.60
43561;DHT22;32305;46.410;17.394;2023-12-20T01:20:25;21.80;35.60
43561;DHT22;32305;46.410;17.394;2023-12-20T01:22:52;21.80;35.60
43561;DHT22;32305;46.410;17.394;2023-12-20T01:25:19;21.80;35.60
43561;DHT22;32305;46.410;17.394;2023-12-20T01:27:46;21.80;35.60
43561;DHT22;32305;46.410;17.394;2023-12-20T01:30:14;21.80;35.60
43561;DHT22;32305;46.410;17.394;2023-12-20T01:32:41;21.80;35.70
43561;DHT22;32305;46.410;17.394;2023-12-20T01:35:08;21.80;35.70
43561;DHT22;32305;46.410;17.394;2023-12-20T01:37:35;21.80;35.60
43561;DHT22;32305;46.410;17.394;2023-12-20T01:40:02;21.80;35.60
43561;DHT22;32305;46.410;17.394;2023-12-20T01:42:29;21.70;35.50
43561;DHT22;32305;46.410;17.394;2023-12-20T01:44:56;21.80;35.50
43561;DHT22;32305;46.410;17.394;2023-12-20T01:47:23;21.70;35.40
43561;DHT22;32305;46.410;17.394;2023-12-20T01:49:50;21.70;35.50
43561;DHT22;32305;46.410;17.394;2023-12-20T01:52:18;21.70;35.50
43561;DHT22;32305;46.410;17.394;2023-12-20T01:54:45;21.70;35.50
43561;DHT22;32305;46.410;17.394;2023-12-20T01:57:14;21.70;35.50
43561;DHT22;32305;46.410;17.394;2023-12-20T01:59:41;21.70;35.50
43561;DHT22;32305;46.410;17.394;2023-12-20T02:02:08;21.70;35.50
43561;DHT22;32305;46.410;17.394;2023-12-20T02:04:35;21.70;35.50
43561;DHT22;32305;46.410;17.394;2023-12-20T02:07:02;21.70;35.50
43561;DHT22;32305;46.410;17.394;2023-12-20T02:09:29;21.70;35.50
43561;DHT22;32305;46.410;17.394;2023-12-20T02:11:57;21.70;35.50
43561;DHT22;32305;46.410;17.394;2023-12-20T02:14:23;21.70;35.50
43561;DHT22;32305;46.410;17.394;2023-12-20T02:16:50;21.70;35.50
43561;DHT22;32305;46.410;17.394;2023-12-20T02:19:17;21.70;35.50
43561;DHT22;32305;46.410;17.394;2023-12-20T02:21:44;21.70;35.50
43561;DHT22;32305;46.410;17.394;2023-12-20T02:24:11;21.70;35.50
43561;DHT22;32305;46.410;17.394;2023-12-20T02:26:39;21.70;35.50
43561;DHT22;32305;46.410;17.394;2023-12-20T02:29:08;21.70;35.60
43561;DHT22;32305;46.410;17.394;2023-12-20T02:31:35;21.70;35.50
43561;DHT22;32305;46.410;17.394;2023-12-20T02:34:02;21.70;35.50
43561;DHT22;32305;46.410;17.394;2023-12-20T02:36:30;21.70;35.50
43561;DHT22;32305;46.410;17.394;2023-12-20T02:38:56;21.70;35.40
43561;DHT22;32305;46.410;17.394;2023-12-20T02:41:23;21.70;35.50
43561;DHT22;32305;46.410;17.394;2023-12-20T02:43:50;21.70;35.40
43561;DHT22;32305;46.410;17.394;2023-12-20T02:46:17;21.70;35.40
43561;DHT22;32305;46.410;17.394;2023-12-20T02:48:44;21.70;35.40
43561;DHT22;32305;46.410;17.394;2023-12-20T02:51:12;21.70;35.40
43561;DHT22;32305;46.410;17.394;2023-12-20T02:53:38;21.70;35.40
43561;DHT22;32305;46.410;17.394;2023-12-20T02:56:05;21.70;35.40
43561;DHT22;32305;46.410;17.394;2023-12-20T02:58:32;21.70;35.40
43561;DHT22;32305;46.410;17.394;2023-12-20T03:00:59;21.60;35.40
43561;DHT22;32305;46.410;17.394;2023-12-20T03:03:26;21.60;35.40
43561;DHT22;32305;46.410;17.394;2023-12-20T03:05:53;21.70;35.40
43561;DHT22;32305;46.410;17.394;2023-12-20T03:08:20;21.60;35.40
43561;DHT22;32305;46.410;17.394;2023-12-20T03:10:47;21.60;35.50
43561;DHT22;32305;46.410;17.394;2023-12-20T03:13:14;21.60;35.40
43561;DHT22;32305;46.410;17.394;2023-12-20T03:15:41;21.60;35.40
43561;DHT22;32305;46.410;17.394;2023-12-20T03:18:08;21.60;35.40
43561;DHT22;32305;46.410;17.394;2023-12-20T03:20:35;21.60;35.40
43561;DHT22;32305;46.410;17.394;2023-12-20T03:23:02;21.70;35.50
43561;DHT22;32305;46.410;17.394;2023-12-20T03:25:29;21.60;35.40
43561;DHT22;32305;46.410;17.394;2023-12-20T03:27:57;21.60;35.40
43561;DHT22;32305;46.410;17.394;2023-12-20T03:30:24;21.60;35.50
43561;DHT22;32305;46.410;17.394;2023-12-20T03:32:51;21.60;35.50
43561;DHT22;32305;46.410;17.394;2023-12-20T03:35:18;21.60;35.40
43561;DHT22;32305;46.410;17.394;2023-12-20T03:37:45;21.60;35.40
43561;DHT22;32305;46.410;17.394;2023-12-20T03:40:12;21.70;35.40
43561;DHT22;32305;46.410;17.394;2023-12-20T03:42:39;21.60;35.40
43561;DHT22;32305;46.410;17.394;2023-12-20T03:45:06;21.60;35.30
43561;DHT22;32305;46.410;17.394;2023-12-20T03:47:33;21.60;35.30
43561;DHT22;32305;46.410;17.394;2023-12-20T03:50:00;21.60;35.40
43561;DHT22;32305;46.410;17.394;2023-12-20T03:52:27;21.60;35.40
43561;DHT22;32305;46.410;17.394;2023-12-20T03:54:54;21.60;35.40
43561;DHT22;32305;46.410;17.394;2023-12-20T03:57:21;21.60;35.40
43561;DHT22;32305;46.410;17.394;2023-12-20T03:59:48;21.60;35.40
43561;DHT22;32305;46.410;17.394;2023-12-20T04:02:15;21.60;35.40
43561;DHT22;32305;46.410;17.394;2023-12-20T04:04:44;21.50;35.40
43561;DHT22;32305;46.410;17.394;2023-12-20T04:07:11;21.60;35.40
43561;DHT22;32305;46.410;17.394;2023-12-20T04:09:40;21.60;35.40
43561;DHT22;32305;46.410;17.394;2023-12-20T04:12:07;21.60;35.40
43561;DHT22;32305;46.410;17.394;2023-12-20T04:14:34;21.60;35.40
43561;DHT22;32305;46.410;17.394;2023-12-20T04:17:01;21.60;35.40
43561;DHT22;32305;46.410;17.394;2023-12-20T04:19:27;21.50;35.30
43561;DHT22;32305;46.410;17.394;2023-12-20T04:21:55;21.60;35.40
43561;DHT22;32305;46.410;17.394;2023-12-20T04:24:22;21.60;35.40
43561;DHT22;32305;46.410;17.394;2023-12-20T04:26:49;21.50;35.40
43561;DHT22;32305;46.410;17.394;2023-12-20T04:29:16;21.60;35.50
43561;DHT22;32305;46.410;17.394;2023-12-20T04:31:43;21.50;35.40
43561;DHT22;32305;46.410;17.394;2023-12-20T04:34:10;21.60;35.40
43561;DHT22;32305;46.410;17.394;2023-12-20T04:36:37;21.60;35.30
43561;DHT22;32305;46.410;17.394;2023-12-20T04:39:04;21.60;35.20
43561;DHT22;32305;46.410;17.394;2023-12-20T04:41:31;21.60;35.10
43561;DHT22;32305;46.410;17.394;2023-12-20T04:43:58;21.60;34.90
43561;DHT22;32305;46.410;17.394;2023-12-20T04:46:25;21.60;34.70
43561;DHT22;32305;46.410;17.394;2023-12-20T04:48:52;21.60;34.50
43561;DHT22;32305;46.410;17.394;2023-12-20T04:51:19;21.60;34.40
43561;DHT22;32305;46.410;17.394;2023-12-20T04:53:46;21.60;34.20
43561;DHT22;32305;46.410;17.394;2023-12-20T04:56:12;21.70;34.20
43561;DHT22;32305;46.410;17.394;2023-12-20T04:58:39;21.70;34.00
43561;DHT22;32305;46.410;17.394;2023-12-20T05:01:06;21.70;33.90
43561;DHT22;32305;46.410;17.394;2023-12-20T05:03:33;21.70;33.90
43561;DHT22;32305;46.410;17.394;2023-12-20T05:06:00;21.70;33.80
43561;DHT22;32305;46.410;17.394;2023-12-20T05:08:27;21.70;33.60
43561;DHT22;32305;46.410;17.394;2023-12-20T05:10:54;21.70;33.60
43561;DHT22;32305;46.410;17.394;2023-12-20T05:13:21;21.70;33.50
43561;DHT22;32305;46.410;17.394;2023-12-20T05:15:52;21.80;33.50
43561;DHT22;32305;46.410;17.394;2023-12-20T05:18:19;21.70;33.40
43561;DHT22;32305;46.410;17.394;2023-12-20T05:20:46;21.70;33.30
43561;DHT22;32305;46.410;17.394;2023-12-20T05:23:13;21.80;33.30
43561;DHT22;32305;46.410;17.394;2023-12-20T05:25:40;21.80;33.30
43561;DHT22;32305;46.410;17.394;2023-12-20T05:28:07;21.80;33.30
43561;DHT22;32305;46.410;17.394;2023-12-20T05:30:34;21.70;33.20
43561;DHT22;32305;46.410;17.394;2023-12-20T05:33:01;21.80;33.30
43561;DHT22;32305;46.410;17.394;2023-12-20T05:35:28;21.80;33.20
43561;DHT22;32305;46.410;17.394;2023-12-20T05:37:56;21.80;33.20
43561;DHT22;32305;46.410;17.394;2023-12-20T05:40:23;21.80;33.20
43561;DHT22;32305;46.410;17.394;2023-12-20T05:42:50;21.80;33.10
43561;DHT22;32305;46.410;17.394;2023-12-20T05:45:17;21.80;33.10
43561;DHT22;32305;46.410;17.394;2023-12-20T05:47:44;21.80;33.00
43561;DHT22;32305;46.410;17.394;2023-12-20T05:50:11;21.80;33.10
43561;DHT22;32305;46.410;17.394;2023-12-20T05:52:38;21.80;33.00
43561;DHT22;32305;46.410;17.394;2023-12-20T05:55:05;21.80;33.00
43561;DHT22;32305;46.410;17.394;2023-12-20T05:57:33;21.80;33.00
43561;DHT22;32305;46.410;17.394;2023-12-20T05:59:59;21.80;33.00
43561;DHT22;32305;46.410;17.394;2023-12-20T06:02:26;21.80;33.00
43561;DHT22;32305;46.410;17.394;2023-12-20T06:04:53;21.80;33.00
43561;DHT22;32305;46.410;17.394;2023-12-20T06:07:20;21.80;33.00
43561;DHT22;32305;46.410;17.394;2023-12-20T06:09:48;21.80;33.00
43561;DHT22;32305;46.410;17.394;2023-12-20T06:12:15;21.80;33.00
43561;DHT22;32305;46.410;17.394;2023-12-20T06:14:42;21.80;33.00
43561;DHT22;32305;46.410;17.394;2023-12-20T06:17:09;21.80;33.40
43561;DHT22;32305;46.410;17.394;2023-12-20T06:19:35;21.80;33.50
43561;DHT22;32305;46.410;17.394;2023-12-20T06:22:03;21.80;33.60
43561;DHT22;32305;46.410;17.394;2023-12-20T06:24:30;21.90;33.90
43561;DHT22;32305;46.410;17.394;2023-12-20T06:26:56;21.90;34.00
43561;DHT22;32305;46.410;17.394;2023-12-20T06:29:24;21.90;34.20
43561;DHT22;32305;46.410;17.394;2023-12-20T06:31:51;21.90;34.20
43561;DHT22;32305;46.410;17.394;2023-12-20T06:34:18;22.00;34.20
43561;DHT22;32305;46.410;17.394;2023-12-20T06:36:45;22.00;34.30
43561;DHT22;32305;46.410;17.394;2023-12-20T06:39:12;22.10;34.40
43561;DHT22;32305;46.410;17.394;2023-12-20T06:41:39;22.10;34.50
43561;DHT22;32305;46.410;17.394;2023-12-20T06:44:06;22.10;34.40
43561;DHT22;32305;46.410;17.394;2023-12-20T06:46:33;22.10;34.30
43561;DHT22;32305;46.410;17.394;2023-12-20T06:49:01;22.20;34.30
43561;DHT22;32305;46.410;17.394;2023-12-20T06:51:28;22.20;34.30
43561;DHT22;32305;46.410;17.394;2023-12-20T06:53:55;22.20;34.30
43561;DHT22;32305;46.410;17.394;2023-12-20T06:56:22;22.20;34.10
43561;DHT22;32305;46.410;17.394;2023-12-20T06:58:49;22.20;34.10
43561;DHT22;32305;46.410;17.394;2023-12-20T07:01:16;22.30;34.20
43561;DHT22;32305;46.410;17.394;2023-12-20T07:03:43;22.20;34.20
43561;DHT22;32305;46.410;17.394;2023-12-20T07:06:10;22.30;34.20
43561;DHT22;32305;46.410;17.394;2023-12-20T07:08:40;22.30;34.50
43561;DHT22;32305;46.410;17.394;2023-12-20T07:11:07;22.30;34.50
43561;DHT22;32305;46.410;17.394;2023-12-20T07:13:37;22.40;34.60
43561;DHT22;32305;46.410;17.394;2023-12-20T07:16:05;22.40;34.60
43561;DHT22;32305;46.410;17.394;2023-12-20T07:18:34;22.40;35.20
43561;DHT22;32305;46.410;17.394;2023-12-20T07:21:01;22.40;34.80
43561;DHT22;32305;46.410;17.394;2023-12-20T07:23:28;22.50;34.70
43561;DHT22;32305;46.410;17.394;2023-12-20T07:25:55;22.60;34.70
43561;DHT22;32305;46.410;17.394;2023-12-20T07:28:22;22.70;35.20
43561;DHT22;32305;46.410;17.394;2023-12-20T07:30:49;22.70;35.30
43561;DHT22;32305;46.410;17.394;2023-12-20T07:33:16;22.70;35.40
43561;DHT22;32305;46.410;17.394;2023-12-20T07:35:43;22.80;35.50
43561;DHT22;32305;46.410;17.394;2023-12-20T07:38:12;22.80;35.60
43561;DHT22;32305;46.410;17.394;2023-12-20T07:40:39;22.80;35.40
43561;DHT22;32305;46.410;17.394;2023-12-20T07:43:06;22.80;35.40
43561;DHT22;32305;46.410;17.394;2023-12-20T07:45:33;22.90;35.50
43561;DHT22;32305;46.410;17.394;2023-12-20T07:48:01;22.90;35.30
43561;DHT22;32305;46.410;17.394;2023-12-20T07:50:28;22.90;35.20
43561;DHT22;32305;46.410;17.394;2023-12-20T07:52:55;22.90;35.00
43561;DHT22;32305;46.410;17.394;2023-12-20T07:55:22;22.90;34.70
43561;DHT22;32305;46.410;17.394;2023-12-20T07:57:50;23.00;34.40
43561;DHT22;32305;46.410;17.394;2023-12-20T08:00:17;23.00;34.20
43561;DHT22;32305;46.410;17.394;2023-12-20T08:02:44;23.00;34.50
43561;DHT22;32305;46.410;17.394;2023-12-20T08:05:11;23.00;34.50
43561;DHT22;32305;46.410;17.394;2023-12-20T08:07:38;23.00;34.60
43561;DHT22;32305;46.410;17.394;2023-12-20T08:10:05;23.10;34.70
43561;DHT22;32305;46.410;17.394;2023-12-20T08:12:32;23.10;34.60
43561;DHT22;32305;46.410;17.394;2023-12-20T08:15:01;23.10;34.70
43561;DHT22;32305;46.410;17.394;2023-12-20T08:17:28;23.20;34.80
43561;DHT22;32305;46.410;17.394;2023-12-20T08:19:55;23.20;34.90
43561;DHT22;32305;46.410;17.394;2023-12-20T08:22:22;23.30;35.00
43561;DHT22;32305;46.410;17.394;2023-12-20T08:24:50;23.30;34.80
43561;DHT22;32305;46.410;17.394;2023-12-20T08:27:17;23.30;34.80
43561;DHT22;32305;46.410;17.394;2023-12-20T08:29:44;23.40;34.70
43561;DHT22;32305;46.410;17.394;2023-12-20T08:32:12;23.30;34.50
43561;DHT22;32305;46.410;17.394;2023-12-20T08:34:39;23.40;34.40
43561;DHT22;32305;46.410;17.394;2023-12-20T08:37:06;23.40;34.40
43561;DHT22;32305;46.410;17.394;2023-12-20T08:39:33;23.40;34.40
43561;DHT22;32305;46.410;17.394;2023-12-20T08:42:00;23.50;34.40
43561;DHT22;32305;46.410;17.394;2023-12-20T08:44:27;23.60;34.40
43561;DHT22;32305;46.410;17.394;2023-12-20T08:46:54;23.60;34.30
43561;DHT22;32305;46.410;17.394;2023-12-20T08:49:24;23.60;34.10
43561;DHT22;32305;46.410;17.394;2023-12-20T08:51:52;23.60;33.90
43561;DHT22;32305;46.410;17.394;2023-12-20T08:54:19;23.60;33.70
43561;DHT22;32305;46.410;17.394;2023-12-20T08:56:46;23.60;33.70
43561;DHT22;32305;46.410;17.394;2023-12-20T08:59:13;23.70;33.50
43561;DHT22;32305;46.410;17.394;2023-12-20T09:01:40;23.70;33.30
43561;DHT22;32305;46.410;17.394;2023-12-20T09:04:08;23.80;33.30
43561;DHT22;32305;46.410;17.394;2023-12-20T09:06:35;23.90;33.00
43561;DHT22;32305;46.410;17.394;2023-12-20T09:09:02;23.90;32.90
43561;DHT22;32305;46.410;17.394;2023-12-20T09:11:29;24.00;32.80
43561;DHT22;32305;46.410;17.394;2023-12-20T09:13:56;24.10;32.50
43561;DHT22;32305;46.410;17.394;2023-12-20T09:16:23;24.10;32.20
43561;DHT22;32305;46.410;17.394;2023-12-20T09:18:50;24.20;32.10
43561;DHT22;32305;46.410;17.394;2023-12-20T09:21:18;24.30;32.10
43561;DHT22;32305;46.410;17.394;2023-12-20T09:23:45;24.40;32.00
43561;DHT22;32305;46.410;17.394;2023-12-20T09:26:12;24.40;31.90
43561;DHT22;32305;46.410;17.394;2023-12-20T09:28:39;24.50;31.90
43561;DHT22;32305;46.410;17.394;2023-12-20T09:31:07;24.60;31.80
43561;DHT22;32305;46.410;17.394;2023-12-20T09:33:36;24.60;31.60
43561;DHT22;32305;46.410;17.394;2023-12-20T09:36:03;24.70;31.50
43561;DHT22;32305;46.410;17.394;2023-12-20T09:38:31;24.70;31.40
43561;DHT22;32305;46.410;17.394;2023-12-20T09:40:58;24.80;31.20
43561;DHT22;32305;46.410;17.394;2023-12-20T09:43:25;24.80;31.10
43561;DHT22;32305;46.410;17.394;2023-12-20T09:45:53;24.90;31.20
43561;DHT22;32305;46.410;17.394;2023-12-20T09:48:20;24.90;31.10
43561;DHT22;32305;46.410;17.394;2023-12-20T09:50:47;25.10;31.10
43561;DHT22;32305;46.410;17.394;2023-12-20T09:53:19;25.10;30.90
43561;DHT22;32305;46.410;17.394;2023-12-20T09:55:46;25.10;30.80
43561;DHT22;32305;46.410;17.394;2023-12-20T09:58:13;25.20;30.70
43561;DHT22;32305;46.410;17.394;2023-12-20T10:00:40;25.30;30.70
43561;DHT22;32305;46.410;17.394;2023-12-20T10:03:07;25.20;30.60
43561;DHT22;32305;46.410;17.394;2023-12-20T10:05:36;25.30;30.70
43561;DHT22;32305;46.410;17.394;2023-12-20T10:08:03;25.30;30.70
43561;DHT22;32305;46.410;17.394;2023-12-20T10:10:31;25.30;30.70
43561;DHT22;32305;46.410;17.394;2023-12-20T10:13:11;25.40;30.50
43561;DHT22;32305;46.410;17.394;2023-12-20T10:15:39;25.40;30.40
43561;DHT22;32305;46.410;17.394;2023-12-20T10:18:08;25.50;31.10
43561;DHT22;32305;46.410;17.394;2023-12-20T10:20:36;25.50;30.40
43561;DHT22;32305;46.410;17.394;2023-12-20T10:23:03;25.60;30.30
43561;DHT22;32305;46.410;17.394;2023-12-20T10:25:30;25.60;30.20
43561;DHT22;32305;46.410;17.394;2023-12-20T10:28:10;25.70;30.30
43561;DHT22;32305;46.410;17.394;2023-12-20T10:30:38;25.70;30.10
43561;DHT22;32305;46.410;17.394;2023-12-20T10:33:06;25.70;30.10
43561;DHT22;32305;46.410;17.394;2023-12-20T10:35:35;25.80;30.00
43561;DHT22;32305;46.410;17.394;2023-12-20T10:38:05;25.90;30.00
43561;DHT22;32305;46.410;17.394;2023-12-20T10:40:36;26.00;30.10
43561;DHT22;32305;46.410;17.394;2023-12-20T10:43:04;26.00;30.10
43561;DHT22;32305;46.410;17.394;2023-12-20T10:45:32;26.00;30.00
43561;DHT22;32305;46.410;17.394;2023-12-20T10:47:59;26.10;30.00
43561;DHT22;32305;46.410;17.394;2023-12-20T10:50:27;26.10;30.00
43561;DHT22;32305;46.410;17.394;2023-12-20T10:52:55;26.10;30.00
43561;DHT22;32305;46.410;17.394;2023-12-20T10:55:23;26.10;29.90
43561;DHT22;32305;46.410;17.394;2023-12-20T10:58:00;26.20;29.90
43561;DHT22;32305;46.410;17.394;2023-12-20T11:00:30;26.20;29.90
43561;DHT22;32305;46.410;17.394;2023-12-20T11:03:00;26.10;29.80
43561;DHT22;32305;46.410;17.394;2023-12-20T11:05:31;26.10;29.80
43561;DHT22;32305;46.410;17.394;2023-12-20T11:08:06;26.10;29.80
43561;DHT22;32305;46.410;17.394;2023-12-20T11:10:39;26.10;29.80
43561;DHT22;32305;46.410;17.394;2023-12-20T11:13:10;26.10;29.80
43561;DHT22;32305;46.410;17.394;2023-12-20T11:15:39;26.10;29.90
43561;DHT22;32305;46.410;17.394;2023-12-20T11:18:16;26.10;30.00
43561;DHT22;32305;46.410;17.394;2023-12-20T11:20:46;26.10;30.00
43561;DHT22;32305;46.410;17.394;2023-12-20T11:23:13;26.10;30.00
43561;DHT22;32305;46.410;17.394;2023-12-20T11:25:47;26.10;30.10
43561;DHT22;32305;46.410;17.394;2023-12-20T11:28:20;26.10;30.20
43561;DHT22;32305;46.410;17.394;2023-12-20T11:30:48;26.10;30.00
43561;DHT22;32305;46.410;17.394;2023-12-20T11:33:17;26.10;30.50
43561;DHT22;32305;46.410;17.394;2023-12-20T11:35:48;26.10;30.10
43561;DHT22;32305;46.410;17.394;2023-12-20T11:38:15;26.10;30.10
43561;DHT22;32305;46.410;17.394;2023-12-20T11:40:42;26.10;30.00
43561;DHT22;32305;46.410;17.394;2023-12-20T11:43:10;26.10;30.10
43561;DHT22;32305;46.410;17.394;2023-12-20T11:45:38;26.10;30.20
43561;DHT22;32305;46.410;17.394;2023-12-20T11:48:18;26.20;31.10
43561;DHT22;32305;46.410;17.394;2023-12-20T11:50:46;26.20;30.70
43561;DHT22;32305;46.410;17.394;2023-12-20T11:53:13;26.20;30.40
43561;DHT22;32305;46.410;17.394;2023-12-20T11:55:40;26.20;30.40
43561;DHT22;32305;46.410;17.394;2023-12-20T11:58:07;26.30;30.40
43561;DHT22;32305;46.410;17.394;2023-12-20T12:00:36;26.30;30.30
43561;DHT22;32305;46.410;17.394;2023-12-20T12:03:03;26.30;30.30
43561;DHT22;32305;46.410;17.394;2023-12-20T12:05:30;26.30;30.30
43561;DHT22;32305;46.410;17.394;2023-12-20T12:07:58;26.30;30.10
43561;DHT22;32305;46.410;17.394;2023-12-20T12:10:25;26.30;30.00
43561;DHT22;32305;46.410;17.394;2023-12-20T12:12:52;26.30;30.10
43561;DHT22;32305;46.410;17.394;2023-12-20T12:15:19;26.40;30.40
43561;DHT22;32305;46.410;17.394;2023-12-20T12:17:54;26.40;30.30
43561;DHT22;32305;46.410;17.394;2023-12-20T12:20:22;26.40;30.10
43561;DHT22;32305;46.410;17.394;2023-12-20T12:22:59;26.40;30.00
43561;DHT22;32305;46.410;17.394;2023-12-20T12:25:26;26.40;30.00
43561;DHT22;32305;46.410;17.394;2023-12-20T12:27:53;26.50;30.00
43561;DHT22;32305;46.410;17.394;2023-12-20T12:30:20;26.50;30.00
43561;DHT22;32305;46.410;17.394;2023-12-20T12:32:47;26.50;29.90
43561;DHT22;32305;46.410;17.394;2023-12-20T12:35:15;26.60;29.90
43561;DHT22;32305;46.410;17.394;2023-12-20T12:37:42;26.60;30.00
43561;DHT22;32305;46.410;17.394;2023-12-20T12:40:11;26.60;30.00
43561;DHT22;32305;46.410;17.394;2023-12-20T12:42:38;26.60;29.90
43561;DHT22;32305;46.410;17.394;2023-12-20T12:45:05;26.60;29.90
43561;DHT22;32305;46.410;17.394;2023-12-20T12:47:33;26.60;29.80
43561;DHT22;32305;46.410;17.394;2023-12-20T12:50:00;26.60;29.90
43561;DHT22;32305;46.410;17.394;2023-12-20T12:52:27;26.60;29.80
43561;DHT22;32305;46.410;17.394;2023-12-20T12:54:55;26.60;29.90
43561;DHT22;32305;46.410;17.394;2023-12-20T12:57:22;26.60;29.90
43561;DHT22;32305;46.410;17.394;2023-12-20T12:59:49;26.60;30.00
43561;DHT22;32305;46.410;17.394;2023-12-20T13:02:16;26.70;30.10
43561;DHT22;32305;46.410;17.394;2023-12-20T13:04:43;26.70;30.00
43561;DHT22;32305;46.410;17.394;2023-12-20T13:07:10;26.70;29.80
43561;DHT22;32305;46.410;17.394;2023-12-20T13:09:38;26.70;29.80
43561;DHT22;32305;46.410;17.394;2023-12-20T13:12:06;26.70;29.80
43561;DHT22;32305;46.410;17.394;2023-12-20T13:14:33;26.70;29.70
43561;DHT22;32305;46.410;17.394;2023-12-20T13:17:04;26.80;29.90
43561;DHT22;32305;46.410;17.394;2023-12-20T13:19:31;26.80;29.90
43561;DHT22;32305;46.410;17.394;2023-12-20T13:21:58;26.80;29.70
43561;DHT22;32305;46.410;17.394;2023-12-20T13:24:25;26.80;29.60
43561;DHT22;32305;46.410;17.394;2023-12-20T13:26:52;26.90;29.60
43561;DHT22;32305;46.410;17.394;2023-12-20T13:29:19;26.90;29.90
43561;DHT22;32305;46.410;17.394;2023-12-20T13:31:46;26.90;29.70
43561;DHT22;32305;46.410;17.394;2023-12-20T13:34:14;26.90;29.70
43561;DHT22;32305;46.410;17.394;2023-12-20T13:36:41;26.90;29.50
43561;DHT22;32305;46.410;17.394;2023-12-20T13:39:08;26.90;29.60
43561;DHT22;32305;46.410;17.394;2023-12-20T13:41:35;26.90;29.50
43561;DHT22;32305;46.410;17.394;2023-12-20T13:44:02;27.00;29.70
43561;DHT22;32305;46.410;17.394;2023-12-20T13:46:30;26.90;29.70
43561;DHT22;32305;46.410;17.394;2023-12-20T13:48:58;27.00;29.50
43561;DHT22;32305;46.410;17.394;2023-12-20T13:51:25;26.90;29.50
43561;DHT22;32305;46.410;17.394;2023-12-20T13:53:52;26.90;29.60
43561;DHT22;32305;46.410;17.394;2023-12-20T13:56:19;26.90;29.60
43561;DHT22;32305;46.410;17.394;2023-12-20T13:58:47;26.90;29.90
43561;DHT22;32305;46.410;17.394;2023-12-20T14:01:14;26.80;29.70
43561;DHT22;32305;46.410;17.394;2023-12-20T14:03:41;26.80;29.60
43561;DHT22;32305;46.410;17.394;2023-12-20T14:06:08;26.80;29.80
43561;DHT22;32305;46.410;17.394;2023-12-20T14:08:35;26.80;29.70
43561;DHT22;32305;46.410;17.394;2023-12-20T14:11:02;26.80;30.10
43561;DHT22;32305;46.410;17.394;2023-12-20T14:13:30;26.80;29.70
43561;DHT22;32305;46.410;17.394;2023-12-20T14:15:58;26.70;29.60
43561;DHT22;32305;46.410;17.394;2023-12-20T14:18:27;26.70;29.60
43561;DHT22;32305;46.410;17.394;2023-12-20T14:20:54;26.70;29.70
43561;DHT22;32305;46.410;17.394;2023-12-20T14:23:21;26.70;29.60
43561;DHT22;32305;46.410;17.394;2023-12-20T14:25:49;26.70;29.70
43561;DHT22;32305;46.410;17.394;2023-12-20T14:28:18;26.70;29.80
43561;DHT22;32305;46.410;17.394;2023-12-20T14:30:46;26.70;29.90
43561;DHT22;32305;46.410;17.394;2023-12-20T14:33:13;26.70;29.80
43561;DHT22;32305;46.410;17.394;2023-12-20T14:35:40;26.70;29.60
43561;DHT22;32305;46.410;17.394;2023-12-20T14:38:11;26.70;29.40
43561;DHT22;32305;46.410;17.394;2023-12-20T14:40:41;26.70;29.40
43561;DHT22;32305;46.410;17.394;2023-12-20T14:43:08;26.60;29.30
43561;DHT22;32305;46.410;17.394;2023-12-20T14:45:36;26.60;29.30
43561;DHT22;32305;46.410;17.394;2023-12-20T14:48:04;26.60;29.40
43561;DHT22;32305;46.410;17.394;2023-12-20T14:50:31;26.60;29.40
43561;DHT22;32305;46.410;17.394;2023-12-20T14:52:58;26.50;29.50
43561;DHT22;32305;46.410;17.394;2023-12-20T14:55:26;26.40;29.60
43561;DHT22;32305;46.410;17.394;2023-12-20T14:57:57;26.30;29.80
43561;DHT22;32305;46.410;17.394;2023-12-20T15:00:24;26.20;30.00
43561;DHT22;32305;46.410;17.394;2023-12-20T15:02:51;26.20;30.50
43561;DHT22;32305;46.410;17.394;2023-12-20T15:05:18;26.20;30.40
43561;DHT22;32305;46.410;17.394;2023-12-20T15:07:45;26.10;30.40
43561;DHT22;32305;46.410;17.394;2023-12-20T15:10:15;26.00;30.30
43561;DHT22;32305;46.410;17.394;2023-12-20T15:12:44;26.00;30.50
43561;DHT22;32305;46.410;17.394;2023-12-20T15:15:12;25.90;30.50
43561;DHT22;32305;46.410;17.394;2023-12-20T15:17:39;25.90;30.50